createdAt,value
2019-05-14T00:01:03.141Z,98366.00
2019-05-14T00:03:33.132Z,98366.00
2019-05-14T00:06:02.457Z,98360.00
2019-05-14T00:08:31.884Z,98357.00
2019-05-14T00:11:01.642Z,98353.00
2019-05-14T00:13:32.161Z,98350.00
2019-05-14T00:16:01.730Z,98344.00
2019-05-14T00:18:31.727Z,98347.00
2019-05-14T00:21:01.960Z,98343.00
2019-05-14T00:23:32.100Z,98346.00
2019-05-14T00:26:02.053Z,98343.00
2019-05-14T00:28:31.913Z,98340.00
2019-05-14T00:31:02.894Z,98337.00
2019-05-14T00:33:32.462Z,98335.00
2019-05-14T00:36:02.286Z,98332.00
2019-05-14T00:38:31.813Z,98333.00
2019-05-14T00:41:02.041Z,98335.00
2019-05-14T00:43:32.247Z,98327.00
2019-05-14T00:46:02.341Z,98328.00
2019-05-14T00:48:32.095Z,98324.00
2019-05-14T00:51:02.484Z,98327.00
2019-05-14T00:53:32.242Z,98318.00
2019-05-14T00:56:02.328Z,98315.00
2019-05-14T00:58:32.522Z,98313.00
2019-05-14T01:01:01.964Z,98314.00
2019-05-14T01:03:32.579Z,98306.00
2019-05-14T01:06:03.013Z,98314.00
2019-05-14T01:08:32.647Z,98312.00
2019-05-14T01:11:02.050Z,98318.00
2019-05-14T01:13:31.489Z,98308.00
2019-05-14T01:16:01.605Z,98308.00
2019-05-14T01:18:32.216Z,98307.00
2019-05-14T01:21:02.175Z,98296.00
2019-05-14T01:23:32.346Z,98303.00
2019-05-14T01:26:02.513Z,98299.00
2019-05-14T01:28:32.422Z,98301.00
2019-05-14T01:31:01.812Z,98297.00
2019-05-14T01:33:31.866Z,98293.00
2019-05-14T01:36:02.208Z,98307.00
2019-05-14T01:38:31.695Z,98296.00
2019-05-14T01:41:01.814Z,98290.00
2019-05-14T01:43:31.750Z,98288.00
2019-05-14T01:46:02.033Z,98295.00
2019-05-14T01:48:31.920Z,98301.00
2019-05-14T01:51:01.788Z,98297.00
2019-05-14T01:53:31.507Z,98293.00
2019-05-14T01:56:01.568Z,98301.00
2019-05-14T01:58:31.425Z,98293.00
2019-05-14T02:01:01.965Z,98291.00
2019-05-14T02:03:32.308Z,98288.00
2019-05-14T02:06:01.958Z,98291.00
2019-05-14T02:08:32.195Z,98291.00
2019-05-14T02:11:02.073Z,98293.00
2019-05-14T02:13:32.195Z,98296.00
2019-05-14T02:16:02.690Z,98293.00
2019-05-14T02:18:32.373Z,98299.00
2019-05-14T02:21:02.171Z,98293.00
2019-05-14T02:23:32.154Z,98296.00
2019-05-14T02:26:02.511Z,98292.00
2019-05-14T02:28:32.362Z,98290.00
2019-05-14T02:31:03.594Z,98282.00
2019-05-14T02:33:32.850Z,98284.00
2019-05-14T02:36:02.220Z,98279.00
2019-05-14T02:38:31.570Z,98271.00
2019-05-14T02:41:01.009Z,98280.00
2019-05-14T02:43:30.631Z,98284.00
2019-05-14T02:46:10.021Z,98274.00
2019-05-14T02:48:31.272Z,98278.00
2019-05-14T02:51:00.703Z,98270.00
2019-05-14T02:53:30.408Z,98278.00
2019-05-14T02:56:00.115Z,98290.00
2019-05-14T02:58:30.159Z,98283.00
2019-05-14T03:01:00.599Z,98280.00
2019-05-14T03:03:30.474Z,98265.00
2019-05-14T03:06:00.752Z,98267.00
2019-05-14T03:08:30.807Z,98269.00
2019-05-14T03:11:00.637Z,98275.00
2019-05-14T03:13:30.141Z,98281.00
2019-05-14T03:15:59.794Z,98270.00
2019-05-14T03:18:29.919Z,98269.00
2019-05-14T03:21:00.864Z,98264.00
2019-05-14T03:23:30.832Z,98261.00
2019-05-14T03:26:00.998Z,98244.00
2019-05-14T03:28:30.840Z,98255.00
2019-05-14T03:31:03.109Z,98244.00
2019-05-14T03:33:33.927Z,98244.00
2019-05-14T03:36:08.773Z,98249.00
2019-05-14T03:38:34.045Z,98247.00
2019-05-14T03:41:03.490Z,98242.00
2019-05-14T03:43:33.290Z,98249.00
2019-05-14T03:46:02.819Z,98247.00
2019-05-14T03:48:32.302Z,98238.00
2019-05-14T03:51:01.734Z,98244.00
2019-05-14T03:53:31.105Z,98234.00
2019-05-14T03:56:01.613Z,98234.00
2019-05-14T03:58:31.070Z,98235.00
2019-05-14T04:01:03.314Z,98236.00
2019-05-14T04:03:32.792Z,98232.00
2019-05-14T04:06:03.568Z,98231.00
2019-05-14T04:08:38.918Z,98244.00
2019-05-14T04:11:09.558Z,98236.00
2019-05-14T04:13:40.972Z,98238.00
2019-05-14T04:16:14.578Z,98233.00
2019-05-14T04:18:50.131Z,98236.00
2019-05-14T04:21:21.089Z,98231.00
2019-05-14T04:23:51.313Z,98227.00
2019-05-14T04:26:23.330Z,98232.00
2019-05-14T04:28:53.003Z,98232.00
2019-05-14T04:31:22.626Z,98229.00
2019-05-14T04:33:52.242Z,98231.00
2019-05-14T04:36:21.557Z,98226.00
2019-05-14T04:38:54.882Z,98229.00
2019-05-14T04:41:22.117Z,98233.00
2019-05-14T04:43:51.548Z,98231.00
2019-05-14T04:46:20.947Z,98232.00
2019-05-14T04:48:51.289Z,98239.00
2019-05-14T04:51:20.942Z,98235.00
2019-05-14T04:53:50.686Z,98253.00
2019-05-14T04:56:20.317Z,98249.00
2019-05-14T04:58:50.408Z,98256.00
2019-05-14T05:01:20.986Z,98256.00
2019-05-14T05:03:50.998Z,98248.00
2019-05-14T05:06:20.680Z,98249.00
2019-05-14T05:08:50.379Z,98252.00
2019-05-14T05:11:21.189Z,98254.00
2019-05-14T05:13:51.129Z,98257.00
2019-05-14T05:16:20.492Z,98256.00
2019-05-14T05:18:49.942Z,98266.00
2019-05-14T05:21:19.527Z,98257.00
2019-05-14T05:23:49.425Z,98241.00
2019-05-14T05:26:19.037Z,98246.00
2019-05-14T05:29:02.892Z,98259.00
2019-05-14T05:31:19.536Z,98250.00
2019-05-14T05:33:49.285Z,98257.00
2019-05-14T05:36:18.776Z,98259.00
2019-05-14T05:38:49.034Z,98260.00
2019-05-14T05:41:19.292Z,98262.00
2019-05-14T05:43:48.890Z,98267.00
2019-05-14T05:46:19.135Z,98271.00
2019-05-14T05:48:48.768Z,98274.00
2019-05-14T05:51:18.974Z,98270.00
2019-05-14T05:53:48.730Z,98272.00
2019-05-14T05:56:18.859Z,98274.00
2019-05-14T05:58:49.093Z,98275.00
2019-05-14T06:01:19.702Z,98278.00
2019-05-14T06:03:49.634Z,98270.00
2019-05-14T06:06:19.521Z,98263.00
2019-05-14T06:08:49.387Z,98263.00
2019-05-14T06:11:19.536Z,98256.00
2019-05-14T06:13:49.556Z,98264.00
2019-05-14T06:16:18.965Z,98267.00
2019-05-14T06:18:48.784Z,98252.00
2019-05-14T06:21:19.117Z,98259.00
2019-05-14T06:23:49.528Z,98257.00
2019-05-14T06:26:19.604Z,98252.00
2019-05-14T06:28:49.831Z,98243.00
2019-05-14T06:31:19.617Z,98248.00
2019-05-14T06:33:49.152Z,98257.00
2019-05-14T06:36:19.583Z,98253.00
2019-05-14T06:38:49.708Z,98252.00
2019-05-14T06:41:19.458Z,98256.00
2019-05-14T06:43:49.074Z,98249.00
2019-05-14T06:46:19.382Z,98245.00
2019-05-14T06:48:49.120Z,98239.00
2019-05-14T06:51:19.911Z,98241.00
2019-05-14T06:53:50.223Z,98235.00
2019-05-14T06:56:21.675Z,98232.00
2019-05-14T06:58:50.778Z,98232.00
2019-05-14T07:01:20.112Z,98240.00
2019-05-14T07:03:49.558Z,98233.00
2019-05-14T07:06:19.000Z,98228.00
2019-05-14T07:08:52.122Z,98233.00
2019-05-14T07:11:19.424Z,98232.00
2019-05-14T07:13:49.500Z,98227.00
2019-05-14T07:16:20.005Z,98230.00
2019-05-14T07:18:53.760Z,98226.00
2019-05-14T07:21:20.577Z,98229.00
2019-05-14T07:23:49.907Z,98228.00
2019-05-14T07:26:19.652Z,98226.00
2019-05-14T07:28:49.265Z,98224.00
2019-05-14T07:31:18.915Z,98226.00
2019-05-14T07:33:49.463Z,98225.00
2019-05-14T07:36:19.289Z,98231.00
2019-05-14T07:38:49.408Z,98231.00
2019-05-14T07:41:19.579Z,98228.00
2019-05-14T07:43:49.019Z,98219.00
2019-05-14T07:46:19.280Z,98224.00
2019-05-14T07:49:03.932Z,98215.00
2019-05-14T07:51:19.947Z,98215.00
2019-05-14T07:53:49.310Z,98216.00
2019-05-14T07:56:19.031Z,98202.00
2019-05-14T07:58:49.333Z,98196.00
2019-05-14T08:01:19.010Z,98203.00
2019-05-14T08:03:48.987Z,98198.00
2019-05-14T08:06:19.123Z,98204.00
2019-05-14T08:08:49.442Z,98190.00
2019-05-14T08:11:19.412Z,98189.00
2019-05-14T08:13:49.503Z,98183.00
2019-05-14T08:16:19.745Z,98178.00
2019-05-14T08:18:49.108Z,98182.00
2019-05-14T08:21:19.274Z,98178.00
2019-05-14T08:23:49.125Z,98173.00
2019-05-14T08:26:19.319Z,98173.00
2019-05-14T08:28:49.168Z,98167.00
2019-05-14T08:31:18.973Z,98178.00
2019-05-14T08:33:49.179Z,98172.00
2019-05-14T08:36:19.081Z,98172.00
2019-05-14T08:38:50.013Z,98177.00
2019-05-14T08:41:20.142Z,98174.00
2019-05-14T08:43:49.773Z,98174.00
2019-05-14T08:46:19.534Z,98169.00
2019-05-14T08:48:49.866Z,98159.00
2019-05-14T08:51:19.627Z,98162.00
2019-05-14T08:53:50.611Z,98156.00
2019-05-14T08:56:20.240Z,98151.00
2019-05-14T08:58:49.740Z,98157.00
2019-05-14T09:01:19.896Z,98146.00
2019-05-14T09:03:49.724Z,98142.00
2019-05-14T09:06:19.552Z,98141.00
2019-05-14T09:08:49.906Z,98129.00
2019-05-14T09:11:24.414Z,98147.00
2019-05-14T09:13:50.728Z,98142.00
2019-05-14T09:16:20.150Z,98131.00
2019-05-14T09:18:49.515Z,98128.00
2019-05-14T09:21:20.429Z,98120.00
2019-05-14T09:23:50.236Z,98126.00
2019-05-14T09:26:19.642Z,98119.00
2019-05-14T09:28:49.016Z,98128.00
2019-05-14T09:31:19.617Z,98119.00
2019-05-14T09:33:49.775Z,98122.00
2019-05-14T09:36:24.015Z,98116.00
2019-05-14T09:38:50.563Z,98113.00
2019-05-14T09:41:20.457Z,98114.00
2019-05-14T09:43:49.977Z,98107.00
2019-05-14T09:46:19.430Z,98108.00
2019-05-14T09:48:48.970Z,98119.00
2019-05-14T09:51:18.690Z,98086.00
2019-05-14T09:53:49.107Z,98093.00
2019-05-14T09:56:19.031Z,98079.00
2019-05-14T09:58:49.905Z,98078.00
2019-05-14T10:01:19.739Z,98082.00
2019-05-14T10:03:49.932Z,98084.00
2019-05-14T10:06:20.660Z,98073.00
2019-05-14T10:08:50.615Z,98075.00
2019-05-14T10:11:19.953Z,98080.00
2019-05-14T10:13:49.319Z,98065.00
2019-05-14T10:16:19.124Z,98062.00
2019-05-14T10:18:52.346Z,98067.00
2019-05-14T10:21:19.854Z,98063.00
2019-05-14T10:23:49.263Z,98050.00
2019-05-14T10:26:20.157Z,98059.00
2019-05-14T10:28:49.663Z,98053.00
2019-05-14T10:31:19.449Z,98053.00
2019-05-14T10:33:49.311Z,98061.00
2019-05-14T10:36:19.441Z,98056.00
2019-05-14T10:38:49.015Z,98056.00
2019-05-14T10:41:18.710Z,98049.00
2019-05-14T10:43:49.705Z,98052.00
2019-05-14T10:46:19.587Z,98039.00
2019-05-14T10:48:49.124Z,98027.00
2019-05-14T10:51:18.460Z,98033.00
2019-05-14T10:53:48.820Z,98040.00
2019-05-14T10:56:19.366Z,98034.00
2019-05-14T10:58:49.325Z,98044.00
2019-05-14T11:01:22.437Z,98041.00
2019-05-14T11:03:50.062Z,98037.00
2019-05-14T11:06:19.369Z,98033.00
2019-05-14T11:08:49.401Z,98044.00
2019-05-14T11:11:18.893Z,98044.00
2019-05-14T11:13:48.359Z,98033.00
2019-05-14T11:16:19.104Z,98047.00
2019-05-14T11:18:49.833Z,98044.00
2019-05-14T11:21:25.947Z,98028.00
2019-05-14T11:23:50.580Z,98018.00
2019-05-14T11:26:19.936Z,98029.00
2019-05-14T11:28:49.475Z,98009.00
2019-05-14T11:31:19.418Z,98008.00
2019-05-14T11:33:49.899Z,98004.00
2019-05-14T11:36:19.653Z,97997.00
2019-05-14T11:38:50.560Z,97992.00
2019-05-14T11:41:20.533Z,97992.00
2019-05-14T11:43:50.050Z,97995.00
2019-05-14T11:46:33.235Z,97974.00
2019-05-14T11:48:50.737Z,97979.00
2019-05-14T11:51:40.546Z,97975.00
2019-05-14T11:53:51.273Z,97980.00
2019-05-14T11:56:20.694Z,97976.00
2019-05-14T11:58:50.265Z,97977.00
2019-05-14T12:01:19.692Z,97995.00
2019-05-14T12:03:50.472Z,97987.00
2019-05-14T12:06:20.094Z,97981.00
2019-05-14T12:08:49.559Z,97986.00
2019-05-14T12:11:19.606Z,97986.00
2019-05-14T12:13:49.121Z,97974.00
2019-05-14T12:16:18.485Z,97974.00
2019-05-14T12:18:48.523Z,97956.00
2019-05-14T12:21:17.946Z,97957.00
2019-05-14T12:23:47.355Z,97946.00
2019-05-14T12:26:19.120Z,97942.00
2019-05-14T12:28:49.427Z,97940.00
2019-05-14T12:31:19.093Z,97948.00
2019-05-14T12:33:48.902Z,97951.00
2019-05-14T12:36:19.242Z,97959.00
2019-05-14T12:38:48.973Z,97954.00
2019-05-14T12:41:19.359Z,97951.00
2019-05-14T12:43:49.204Z,97956.00
2019-05-14T12:46:20.050Z,97949.00
2019-05-14T12:48:49.872Z,97953.00
2019-05-14T12:51:19.328Z,97944.00
2019-05-14T12:53:48.973Z,97963.00
2019-05-14T12:56:19.036Z,97952.00
2019-05-14T12:58:49.166Z,97951.00
2019-05-14T13:01:19.994Z,97950.00
2019-05-14T13:03:49.803Z,97953.00
2019-05-14T13:06:19.439Z,97937.00
2019-05-14T13:08:49.252Z,97939.00
2019-05-14T13:11:18.976Z,97940.00
2019-05-14T13:13:49.083Z,97935.00
2019-05-14T13:16:19.545Z,97941.00
2019-05-14T13:18:50.096Z,97946.00
2019-05-14T13:21:19.976Z,97934.00
2019-05-14T13:23:49.477Z,97937.00
2019-05-14T13:26:19.187Z,97932.00
2019-05-14T13:28:50.855Z,97928.00
2019-05-14T13:31:19.825Z,97927.00
2019-05-14T13:33:49.196Z,97931.00
2019-05-14T13:36:20.261Z,97917.00
2019-05-14T13:38:49.749Z,97928.00
2019-05-14T13:41:19.513Z,97921.00
2019-05-14T13:43:50.370Z,97922.00
2019-05-14T13:46:20.179Z,97935.00
2019-05-14T13:48:50.226Z,97923.00
2019-05-14T13:51:19.810Z,97922.00
2019-05-14T13:53:49.925Z,97917.00
2019-05-14T13:56:19.508Z,97912.00
2019-05-14T13:58:49.189Z,97900.00
2019-05-14T14:01:19.484Z,97890.00
2019-05-14T14:04:02.710Z,97895.00
2019-05-14T14:06:20.889Z,97882.00
2019-05-14T14:08:50.436Z,97871.00
2019-05-14T14:11:19.803Z,97872.00
2019-05-14T14:13:49.240Z,97873.00
2019-05-14T14:16:19.580Z,97869.00
2019-05-14T14:18:50.298Z,97877.00
2019-05-14T14:21:20.085Z,97869.00
2019-05-14T14:23:49.870Z,97859.00
2019-05-14T14:26:19.489Z,97849.00
2019-05-14T14:28:49.503Z,97852.00
2019-05-14T14:31:19.264Z,97855.00
2019-05-14T14:33:49.035Z,97857.00
2019-05-14T14:36:19.857Z,97845.00
2019-05-14T14:38:49.991Z,97854.00
2019-05-14T14:41:19.705Z,97842.00
2019-05-14T14:43:53.780Z,97846.00
2019-05-14T14:46:20.324Z,97844.00
2019-05-14T14:48:49.896Z,97844.00
2019-05-14T14:51:19.691Z,97844.00
2019-05-14T14:53:59.067Z,97835.00
2019-05-14T14:56:20.307Z,97834.00
2019-05-14T14:58:49.655Z,97838.00
2019-05-14T15:01:19.876Z,97833.00
2019-05-14T15:03:50.566Z,97823.00
2019-05-14T15:06:20.638Z,97820.00
2019-05-14T15:08:50.061Z,97813.00
2019-05-14T15:11:19.420Z,97812.00
2019-05-14T15:13:48.786Z,97816.00
2019-05-14T15:16:20.335Z,97803.00
2019-05-14T15:18:50.027Z,97798.00
2019-05-14T15:21:19.640Z,97802.00
2019-05-14T15:24:06.003Z,97794.00
2019-05-14T15:26:20.118Z,97798.00
2019-05-14T15:28:49.809Z,97806.00
2019-05-14T15:31:19.480Z,97826.00
2019-05-14T15:33:50.835Z,97839.00
2019-05-14T15:36:20.084Z,97847.00
2019-05-14T15:38:49.521Z,97822.00
2019-05-14T15:41:20.061Z,97844.00
2019-05-14T15:44:09.334Z,97841.00
2019-05-14T15:46:41.937Z,97842.00
2019-05-14T15:49:10.184Z,97843.00
2019-05-14T15:51:39.899Z,97841.00
2019-05-14T15:54:34.553Z,97841.00
2019-05-14T15:56:40.505Z,97844.00
2019-05-14T15:59:09.869Z,97831.00
2019-05-14T16:01:39.845Z,97839.00
2019-05-14T16:04:11.453Z,97841.00
2019-05-14T16:06:41.835Z,97855.00
2019-05-14T16:09:11.204Z,97827.00
2019-05-14T16:11:40.559Z,97837.00
2019-05-14T16:14:10.302Z,97858.00
2019-05-14T16:16:39.729Z,97862.00
2019-05-14T16:19:09.144Z,97847.00
2019-05-14T16:21:38.785Z,97835.00
2019-05-14T16:24:08.458Z,97841.00
2019-05-14T16:26:37.838Z,97827.00
2019-05-14T16:29:08.908Z,97837.00
2019-05-14T16:31:43.226Z,97841.00
2019-05-14T16:34:10.094Z,97839.00
2019-05-14T16:36:41.349Z,97836.00
2019-05-14T16:39:10.936Z,97844.00
2019-05-14T16:41:40.297Z,97832.00
2019-05-14T16:44:09.663Z,97830.00
2019-05-14T16:46:39.006Z,97836.00
2019-05-14T16:49:09.001Z,97833.00
2019-05-14T16:51:38.426Z,97827.00
2019-05-14T16:54:07.815Z,97840.00
2019-05-14T16:56:41.138Z,97906.00
2019-05-14T16:59:09.040Z,97857.00
2019-05-14T17:01:38.508Z,97869.00
2019-05-14T17:04:09.234Z,97876.00
2019-05-14T17:06:59.501Z,97889.00
2019-05-14T17:09:33.219Z,97883.00
2019-05-14T17:12:48.322Z,97881.00
2019-05-14T17:15:18.886Z,97895.00
2019-05-14T17:17:50.800Z,97881.00
2019-05-14T17:21:09.106Z,97871.00
2019-05-14T17:23:31.233Z,97873.00
2019-05-14T17:26:03.634Z,97866.00
2019-05-14T17:28:44.835Z,97863.00
2019-05-14T17:31:14.589Z,97869.00
2019-05-14T17:33:45.516Z,97878.00
2019-05-14T17:36:15.005Z,97865.00
2019-05-14T17:38:49.218Z,97888.00
2019-05-14T17:41:20.178Z,97874.00
2019-05-14T17:43:49.798Z,97885.00
2019-05-14T17:46:23.438Z,97877.00
2019-05-14T17:48:55.761Z,97878.00
2019-05-14T17:51:25.138Z,97882.00
2019-05-14T17:53:54.566Z,97880.00
2019-05-14T17:56:23.967Z,97870.00
2019-05-14T17:58:57.934Z,97875.00
2019-05-14T18:01:28.968Z,97874.00
2019-05-14T18:03:58.652Z,97878.00
2019-05-14T18:06:28.532Z,97875.00
2019-05-14T18:08:58.584Z,97881.00
2019-05-14T18:11:28.478Z,97882.00
2019-05-14T18:14:00.856Z,97878.00
2019-05-14T18:16:30.197Z,97881.00
2019-05-14T18:18:59.575Z,97877.00
2019-05-14T18:21:32.089Z,97877.00
2019-05-14T18:24:03.175Z,97871.00
2019-05-14T18:26:32.582Z,97872.00
2019-05-14T18:29:04.519Z,97867.00
2019-05-14T18:31:33.330Z,97871.00
2019-05-14T18:34:02.727Z,97879.00
2019-05-14T18:36:32.135Z,97871.00
2019-05-14T18:39:01.517Z,97872.00
2019-05-14T18:41:30.900Z,97875.00
2019-05-14T18:44:00.340Z,97866.00
2019-05-14T18:46:29.753Z,97872.00
2019-05-14T18:49:01.420Z,97875.00
2019-05-14T18:51:30.858Z,97880.00
2019-05-14T18:54:00.204Z,97880.00
2019-05-14T18:56:29.579Z,97879.00
2019-05-14T18:58:59.017Z,97869.00
2019-05-14T19:01:29.105Z,97869.00
2019-05-14T19:03:59.089Z,97861.00
2019-05-14T19:06:30.575Z,97864.00
2019-05-14T19:08:59.974Z,97859.00
2019-05-14T19:11:29.416Z,97862.00
2019-05-14T19:13:58.962Z,97862.00
2019-05-14T19:16:28.877Z,97866.00
2019-05-14T19:18:58.616Z,97859.00
2019-05-14T19:21:28.636Z,97859.00
2019-05-14T19:23:58.115Z,97855.00
2019-05-14T19:26:36.517Z,97851.00
2019-05-14T19:28:58.645Z,97854.00
2019-05-14T19:31:28.077Z,97848.00
2019-05-14T19:33:57.545Z,97843.00
2019-05-14T19:36:28.120Z,97840.00
2019-05-14T19:38:58.400Z,97841.00
2019-05-14T19:41:28.236Z,97839.00
2019-05-14T19:43:59.460Z,97839.00
2019-05-14T19:46:29.229Z,97846.00
2019-05-14T19:48:59.086Z,97845.00
2019-05-14T19:51:28.656Z,97847.00
2019-05-14T19:53:58.520Z,97844.00
2019-05-14T19:56:29.308Z,97834.00
2019-05-14T19:58:58.912Z,97839.00
2019-05-14T20:01:28.825Z,97840.00
2019-05-14T20:03:58.990Z,97839.00
2019-05-14T20:06:29.464Z,97844.00
2019-05-14T20:08:59.146Z,97834.00
2019-05-14T20:11:29.064Z,97828.00
2019-05-14T20:13:59.056Z,97830.00
2019-05-14T20:16:28.830Z,97823.00
2019-05-14T20:18:58.240Z,97824.00
2019-05-14T20:21:28.276Z,97821.00
2019-05-14T20:23:59.069Z,97825.00
2019-05-14T20:26:28.532Z,97832.00
2019-05-14T20:28:59.057Z,97824.00
2019-05-14T20:31:29.679Z,97817.00
2019-05-14T20:33:59.293Z,97810.00
2019-05-14T20:36:28.743Z,97801.00
2019-05-14T20:38:58.995Z,97802.00
2019-05-14T20:41:28.804Z,97800.00
2019-05-14T20:43:59.464Z,97798.00
2019-05-14T20:46:28.890Z,97789.00
2019-05-14T20:48:59.141Z,97791.00
2019-05-14T20:51:30.444Z,97804.00
2019-05-14T20:53:59.954Z,97798.00
2019-05-14T20:56:29.400Z,97795.00
2019-05-14T20:58:59.084Z,97792.00
2019-05-14T21:01:29.088Z,97795.00
2019-05-14T21:03:59.280Z,97795.00
2019-05-14T21:06:28.954Z,97787.00
2019-05-14T21:08:58.596Z,97796.00
2019-05-14T21:11:28.726Z,97790.00
2019-05-14T21:13:58.421Z,97789.00
2019-05-14T21:16:28.425Z,97790.00
2019-05-14T21:18:59.220Z,97791.00
2019-05-14T21:21:28.688Z,97789.00
2019-05-14T21:23:58.782Z,97782.00
2019-05-14T21:26:29.265Z,97784.00
2019-05-14T21:28:58.661Z,97786.00
2019-05-14T21:31:28.537Z,97786.00
2019-05-14T21:33:58.604Z,97780.00
2019-05-14T21:36:28.507Z,97779.00
2019-05-14T21:38:58.620Z,97786.00
2019-05-14T21:41:29.048Z,97781.00
2019-05-14T21:44:01.392Z,97785.00
2019-05-14T21:46:31.714Z,97780.00
2019-05-14T21:49:00.950Z,97769.00
2019-05-14T21:51:30.316Z,97776.00
2019-05-14T21:53:59.755Z,97762.00
2019-05-14T21:56:29.313Z,97770.00
2019-05-14T21:59:01.406Z,97761.00
2019-05-14T22:01:30.915Z,97766.00
2019-05-14T22:04:00.684Z,97762.00
2019-05-14T22:06:30.121Z,97762.00
2019-05-14T22:08:59.525Z,97767.00
2019-05-14T22:11:29.051Z,97761.00
2019-05-14T22:13:58.451Z,97760.00
2019-05-14T22:16:28.242Z,97758.00
2019-05-14T22:18:59.322Z,97752.00
2019-05-14T22:21:29.055Z,97755.00
2019-05-14T22:23:58.935Z,97756.00
2019-05-14T22:26:28.595Z,97757.00
2019-05-14T22:28:58.641Z,97747.00
2019-05-14T22:31:28.907Z,97753.00
2019-05-14T22:33:58.421Z,97747.00
2019-05-14T22:36:29.342Z,97747.00
2019-05-14T22:38:58.904Z,97739.00
2019-05-14T22:41:29.105Z,97738.00
2019-05-14T22:43:59.944Z,97736.00
2019-05-14T22:46:29.596Z,97726.00
2019-05-14T22:48:58.940Z,97731.00
2019-05-14T22:51:28.308Z,97733.00
2019-05-14T22:53:59.013Z,97722.00
2019-05-14T22:56:28.477Z,97724.00
2019-05-14T22:58:58.309Z,97723.00
2019-05-14T23:01:28.894Z,97729.00
2019-05-14T23:03:59.658Z,97725.00
2019-05-14T23:06:29.096Z,97729.00
2019-05-14T23:08:58.443Z,97729.00
2019-05-14T23:11:28.844Z,97725.00
2019-05-14T23:13:58.469Z,97731.00
2019-05-14T23:16:34.173Z,97722.00
2019-05-14T23:18:58.921Z,97718.00
2019-05-14T23:21:28.438Z,97711.00
2019-05-14T23:23:58.320Z,97716.00
2019-05-14T23:26:28.600Z,97720.00
2019-05-14T23:28:58.722Z,97706.00
2019-05-14T23:31:28.874Z,97708.00
2019-05-14T23:33:58.650Z,97709.00
2019-05-14T23:36:29.167Z,97709.00
2019-05-14T23:38:59.536Z,97705.00
2019-05-14T23:41:28.961Z,97698.00
2019-05-14T23:43:58.317Z,97698.00
2019-05-14T23:46:29.159Z,97692.00
2019-05-14T23:48:59.246Z,97693.00
2019-05-14T23:51:29.112Z,97695.00
2019-05-14T23:53:58.577Z,97689.00
2019-05-14T23:56:28.802Z,97689.00
2019-05-14T23:59:01.806Z,97683.00
